sensor_id;sensor_type;location;lat;lon;timestamp;P1;durP1;ratioP1;P2;durP2;ratioP2
12271;SDS011;6198;51.446;6.698;2023-06-10T00:01:30;8.77;;;7.47;;
12271;SDS011;6198;51.446;6.698;2023-06-10T00:03:56;7.77;;;6.97;;
12271;SDS011;6198;51.446;6.698;2023-06-10T00:06:22;7.83;;;7.10;;
12271;SDS011;6198;51.446;6.698;2023-06-10T00:08:49;8.47;;;7.70;;
12271;SDS011;6198;51.446;6.698;2023-06-10T00:11:15;8.40;;;6.93;;
12271;SDS011;6198;51.446;6.698;2023-06-10T00:13:41;7.10;;;6.50;;
12271;SDS011;6198;51.446;6.698;2023-06-10T00:16:07;10.43;;;7.27;;
12271;SDS011;6198;51.446;6.698;2023-06-10T00:18:33;8.80;;;7.83;;
12271;SDS011;6198;51.446;6.698;2023-06-10T00:21:01;8.27;;;7.47;;
12271;SDS011;6198;51.446;6.698;2023-06-10T00:23:29;8.77;;;7.47;;
12271;SDS011;6198;51.446;6.698;2023-06-10T00:26:02;7.87;;;7.07;;
12271;SDS011;6198;51.446;6.698;2023-06-10T00:28:28;11.00;;;7.50;;
12271;SDS011;6198;51.446;6.698;2023-06-10T00:30:54;9.03;;;7.13;;
12271;SDS011;6198;51.446;6.698;2023-06-10T00:33:20;9.80;;;7.70;;
12271;SDS011;6198;51.446;6.698;2023-06-10T00:35:46;8.63;;;7.67;;
12271;SDS011;6198;51.446;6.698;2023-06-10T00:38:13;8.23;;;7.43;;
12271;SDS011;6198;51.446;6.698;2023-06-10T00:40:40;10.00;;;7.67;;
12271;SDS011;6198;51.446;6.698;2023-06-10T00:43:06;8.10;;;7.30;;
12271;SDS011;6198;51.446;6.698;2023-06-10T00:45:32;9.80;;;7.90;;
12271;SDS011;6198;51.446;6.698;2023-06-10T00:48:01;12.43;;;7.83;;
12271;SDS011;6198;51.446;6.698;2023-06-10T00:50:27;9.70;;;8.00;;
12271;SDS011;6198;51.446;6.698;2023-06-10T00:52:53;8.40;;;7.60;;
12271;SDS011;6198;51.446;6.698;2023-06-10T00:55:19;8.23;;;7.27;;
12271;SDS011;6198;51.446;6.698;2023-06-10T00:57:46;11.03;;;7.77;;
12271;SDS011;6198;51.446;6.698;2023-06-10T01:00:13;8.37;;;7.50;;
12271;SDS011;6198;51.446;6.698;2023-06-10T01:02:40;10.30;;;7.53;;
12271;SDS011;6198;51.446;6.698;2023-06-10T01:05:06;8.57;;;7.07;;
12271;SDS011;6198;51.446;6.698;2023-06-10T01:07:34;9.20;;;7.57;;
12271;SDS011;6198;51.446;6.698;2023-06-10T01:10:12;8.10;;;7.30;;
12271;SDS011;6198;51.446;6.698;2023-06-10T01:12:45;8.10;;;7.30;;
12271;SDS011;6198;51.446;6.698;2023-06-10T01:15:14;10.43;;;7.30;;
12271;SDS011;6198;51.446;6.698;2023-06-10T01:17:56;10.23;;;7.50;;
12271;SDS011;6198;51.446;6.698;2023-06-10T01:20:23;8.63;;;7.83;;
12271;SDS011;6198;51.446;6.698;2023-06-10T01:22:49;11.20;;;7.33;;
12271;SDS011;6198;51.446;6.698;2023-06-10T01:25:16;8.03;;;7.30;;
12271;SDS011;6198;51.446;6.698;2023-06-10T01:27:42;8.77;;;7.77;;
12271;SDS011;6198;51.446;6.698;2023-06-10T01:30:14;8.90;;;8.00;;
12271;SDS011;6198;51.446;6.698;2023-06-10T01:32:43;7.97;;;7.17;;
12271;SDS011;6198;51.446;6.698;2023-06-10T01:35:10;10.57;;;7.57;;
12271;SDS011;6198;51.446;6.698;2023-06-10T01:37:37;9.33;;;8.33;;
12271;SDS011;6198;51.446;6.698;2023-06-10T01:40:04;10.77;;;7.33;;
12271;SDS011;6198;51.446;6.698;2023-06-10T01:42:31;9.37;;;7.90;;
12271;SDS011;6198;51.446;6.698;2023-06-10T01:44:57;8.20;;;7.40;;
12271;SDS011;6198;51.446;6.698;2023-06-10T01:47:23;12.43;;;8.23;;
12271;SDS011;6198;51.446;6.698;2023-06-10T01:49:49;11.03;;;8.30;;
12271;SDS011;6198;51.446;6.698;2023-06-10T01:52:15;8.93;;;7.80;;
12271;SDS011;6198;51.446;6.698;2023-06-10T01:54:42;9.60;;;8.60;;
12271;SDS011;6198;51.446;6.698;2023-06-10T01:57:08;10.53;;;8.20;;
12271;SDS011;6198;51.446;6.698;2023-06-10T01:59:34;9.77;;;8.53;;
12271;SDS011;6198;51.446;6.698;2023-06-10T02:02:02;10.73;;;8.30;;
12271;SDS011;6198;51.446;6.698;2023-06-10T02:04:28;16.03;;;9.53;;
12271;SDS011;6198;51.446;6.698;2023-06-10T02:06:54;10.57;;;9.23;;
12271;SDS011;6198;51.446;6.698;2023-06-10T02:09:20;11.93;;;9.30;;
12271;SDS011;6198;51.446;6.698;2023-06-10T02:11:47;11.73;;;9.87;;
12271;SDS011;6198;51.446;6.698;2023-06-10T02:14:13;13.87;;;9.50;;
12271;SDS011;6198;51.446;6.698;2023-06-10T02:16:40;12.77;;;10.32;;
12271;SDS011;6198;51.446;6.698;2023-06-10T02:19:06;11.10;;;10.00;;
12271;SDS011;6198;51.446;6.698;2023-06-10T02:21:32;14.87;;;10.10;;
12271;SDS011;6198;51.446;6.698;2023-06-10T02:24:01;11.87;;;9.90;;
12271;SDS011;6198;51.446;6.698;2023-06-10T02:26:28;13.80;;;10.53;;
12271;SDS011;6198;51.446;6.698;2023-06-10T02:28:54;12.13;;;9.63;;
12271;SDS011;6198;51.446;6.698;2023-06-10T02:31:20;13.53;;;10.30;;
12271;SDS011;6198;51.446;6.698;2023-06-10T02:33:46;12.30;;;10.67;;
12271;SDS011;6198;51.446;6.698;2023-06-10T02:36:12;14.87;;;10.53;;
12271;SDS011;6198;51.446;6.698;2023-06-10T02:38:38;12.20;;;9.83;;
12271;SDS011;6198;51.446;6.698;2023-06-10T02:41:05;11.67;;;9.90;;
12271;SDS011;6198;51.446;6.698;2023-06-10T02:43:31;12.23;;;10.93;;
12271;SDS011;6198;51.446;6.698;2023-06-10T02:45:57;12.03;;;10.30;;
12271;SDS011;6198;51.446;6.698;2023-06-10T02:48:23;12.73;;;10.80;;
12271;SDS011;6198;51.446;6.698;2023-06-10T02:50:49;12.47;;;10.60;;
12271;SDS011;6198;51.446;6.698;2023-06-10T02:53:15;12.83;;;10.97;;
12271;SDS011;6198;51.446;6.698;2023-06-10T02:55:41;14.00;;;11.37;;
12271;SDS011;6198;51.446;6.698;2023-06-10T02:58:08;12.57;;;11.27;;
12271;SDS011;6198;51.446;6.698;2023-06-10T03:00:34;12.57;;;11.10;;
12271;SDS011;6198;51.446;6.698;2023-06-10T03:03:00;13.20;;;11.00;;
12271;SDS011;6198;51.446;6.698;2023-06-10T03:05:28;13.17;;;11.90;;
12271;SDS011;6198;51.446;6.698;2023-06-10T03:07:55;14.47;;;12.20;;
12271;SDS011;6198;51.446;6.698;2023-06-10T03:10:21;11.97;;;10.77;;
12271;SDS011;6198;51.446;6.698;2023-06-10T03:12:47;16.97;;;12.07;;
12271;SDS011;6198;51.446;6.698;2023-06-10T03:15:12;13.93;;;12.50;;
12271;SDS011;6198;51.446;6.698;2023-06-10T03:17:39;13.67;;;11.70;;
12271;SDS011;6198;51.446;6.698;2023-06-10T03:20:05;13.77;;;12.27;;
12271;SDS011;6198;51.446;6.698;2023-06-10T03:22:33;14.97;;;13.20;;
12271;SDS011;6198;51.446;6.698;2023-06-10T03:24:59;13.53;;;12.23;;
12271;SDS011;6198;51.446;6.698;2023-06-10T03:27:25;17.40;;;12.67;;
12271;SDS011;6198;51.446;6.698;2023-06-10T03:29:51;14.20;;;12.10;;
12271;SDS011;6198;51.446;6.698;2023-06-10T03:32:17;13.80;;;12.40;;
12271;SDS011;6198;51.446;6.698;2023-06-10T03:34:43;14.40;;;13.00;;
12271;SDS011;6198;51.446;6.698;2023-06-10T03:37:12;13.93;;;12.63;;
12271;SDS011;6198;51.446;6.698;2023-06-10T03:39:38;15.67;;;12.37;;
12271;SDS011;6198;51.446;6.698;2023-06-10T03:42:04;14.00;;;12.50;;
12271;SDS011;6198;51.446;6.698;2023-06-10T03:44:31;17.00;;;13.40;;
12271;SDS011;6198;51.446;6.698;2023-06-10T03:46:57;14.00;;;12.50;;
12271;SDS011;6198;51.446;6.698;2023-06-10T03:49:24;15.97;;;13.20;;
12271;SDS011;6198;51.446;6.698;2023-06-10T03:51:53;13.93;;;12.53;;
12271;SDS011;6198;51.446;6.698;2023-06-10T03:54:19;13.80;;;12.40;;
12271;SDS011;6198;51.446;6.698;2023-06-10T03:56:45;16.27;;;13.70;;
12271;SDS011;6198;51.446;6.698;2023-06-10T03:59:13;18.83;;;13.50;;
12271;SDS011;6198;51.446;6.698;2023-06-10T04:01:39;15.03;;;13.00;;
12271;SDS011;6198;51.446;6.698;2023-06-10T04:04:06;15.53;;;13.93;;
12271;SDS011;6198;51.446;6.698;2023-06-10T04:06:32;16.43;;;13.50;;
12271;SDS011;6198;51.446;6.698;2023-06-10T04:08:58;17.57;;;14.07;;
12271;SDS011;6198;51.446;6.698;2023-06-10T04:11:24;14.97;;;13.53;;
12271;SDS011;6198;51.446;6.698;2023-06-10T04:13:50;15.03;;;13.37;;
12271;SDS011;6198;51.446;6.698;2023-06-10T04:16:16;15.57;;;13.10;;
12271;SDS011;6198;51.446;6.698;2023-06-10T04:18:42;18.03;;;13.30;;
12271;SDS011;6198;51.446;6.698;2023-06-10T04:21:08;16.00;;;13.40;;
12271;SDS011;6198;51.446;6.698;2023-06-10T04:23:37;14.20;;;12.70;;
12271;SDS011;6198;51.446;6.698;2023-06-10T04:26:03;15.50;;;13.27;;
12271;SDS011;6198;51.446;6.698;2023-06-10T04:28:30;14.83;;;12.50;;
12271;SDS011;6198;51.446;6.698;2023-06-10T04:30:56;15.87;;;13.50;;
12271;SDS011;6198;51.446;6.698;2023-06-10T04:33:22;14.27;;;12.90;;
12271;SDS011;6198;51.446;6.698;2023-06-10T04:35:49;14.30;;;12.80;;
12271;SDS011;6198;51.446;6.698;2023-06-10T04:38:15;13.83;;;12.43;;
12271;SDS011;6198;51.446;6.698;2023-06-10T04:40:41;14.23;;;12.93;;
12271;SDS011;6198;51.446;6.698;2023-06-10T04:43:07;14.63;;;13.13;;
12271;SDS011;6198;51.446;6.698;2023-06-10T04:45:33;14.20;;;12.63;;
12271;SDS011;6198;51.446;6.698;2023-06-10T04:47:59;15.67;;;11.93;;
12271;SDS011;6198;51.446;6.698;2023-06-10T04:50:26;13.97;;;12.27;;
12271;SDS011;6198;51.446;6.698;2023-06-10T04:52:52;15.00;;;11.60;;
12271;SDS011;6198;51.446;6.698;2023-06-10T04:55:18;13.17;;;11.63;;
12271;SDS011;6198;51.446;6.698;2023-06-10T04:57:44;12.40;;;11.00;;
12271;SDS011;6198;51.446;6.698;2023-06-10T05:00:10;17.23;;;11.77;;
12271;SDS011;6198;51.446;6.698;2023-06-10T05:02:36;12.03;;;10.83;;
12271;SDS011;6198;51.446;6.698;2023-06-10T05:05:02;13.00;;;11.70;;
12271;SDS011;6198;51.446;6.698;2023-06-10T05:07:28;12.50;;;11.20;;
12271;SDS011;6198;51.446;6.698;2023-06-10T05:09:54;11.43;;;10.37;;
12271;SDS011;6198;51.446;6.698;2023-06-10T05:12:20;13.70;;;11.40;;
12271;SDS011;6198;51.446;6.698;2023-06-10T05:14:47;14.20;;;11.57;;
12271;SDS011;6198;51.446;6.698;2023-06-10T05:17:13;12.50;;;11.00;;
12271;SDS011;6198;51.446;6.698;2023-06-10T05:19:39;11.80;;;10.60;;
12271;SDS011;6198;51.446;6.698;2023-06-10T05:22:06;12.27;;;11.07;;
12271;SDS011;6198;51.446;6.698;2023-06-10T05:24:32;12.43;;;11.10;;
12271;SDS011;6198;51.446;6.698;2023-06-10T05:26:58;16.67;;;10.40;;
12271;SDS011;6198;51.446;6.698;2023-06-10T05:29:24;12.20;;;11.00;;
12271;SDS011;6198;51.446;6.698;2023-06-10T05:31:50;14.87;;;10.57;;
12271;SDS011;6198;51.446;6.698;2023-06-10T05:34:16;14.00;;;10.77;;
12271;SDS011;6198;51.446;6.698;2023-06-10T05:36:43;12.37;;;9.97;;
12271;SDS011;6198;51.446;6.698;2023-06-10T05:39:09;11.57;;;10.33;;
12271;SDS011;6198;51.446;6.698;2023-06-10T05:41:38;12.00;;;9.90;;
12271;SDS011;6198;51.446;6.698;2023-06-10T05:44:04;13.20;;;10.33;;
12271;SDS011;6198;51.446;6.698;2023-06-10T05:46:30;11.87;;;9.40;;
12271;SDS011;6198;51.446;6.698;2023-06-10T05:48:56;10.70;;;9.53;;
12271;SDS011;6198;51.446;6.698;2023-06-10T05:51:22;19.07;;;9.70;;
12271;SDS011;6198;51.446;6.698;2023-06-10T05:53:48;13.87;;;9.10;;
12271;SDS011;6198;51.446;6.698;2023-06-10T05:56:14;11.43;;;9.13;;
12271;SDS011;6198;51.446;6.698;2023-06-10T05:58:40;10.03;;;9.03;;
12271;SDS011;6198;51.446;6.698;2023-06-10T06:01:06;10.40;;;9.23;;
12271;SDS011;6198;51.446;6.698;2023-06-10T06:03:32;13.73;;;8.73;;
12271;SDS011;6198;51.446;6.698;2023-06-10T06:05:58;13.07;;;8.90;;
12271;SDS011;6198;51.446;6.698;2023-06-10T06:08:24;13.10;;;8.70;;
12271;SDS011;6198;51.446;6.698;2023-06-10T06:10:50;9.30;;;8.33;;
12271;SDS011;6198;51.446;6.698;2023-06-10T06:13:16;11.97;;;8.33;;
12271;SDS011;6198;51.446;6.698;2023-06-10T06:15:42;9.47;;;8.43;;
12271;SDS011;6198;51.446;6.698;2023-06-10T06:18:08;14.03;;;8.87;;
12271;SDS011;6198;51.446;6.698;2023-06-10T06:20:34;10.87;;;8.13;;
12271;SDS011;6198;51.446;6.698;2023-06-10T06:23:00;13.73;;;8.97;;
12271;SDS011;6198;51.446;6.698;2023-06-10T06:25:26;10.30;;;8.70;;
12271;SDS011;6198;51.446;6.698;2023-06-10T06:27:52;9.90;;;7.70;;
12271;SDS011;6198;51.446;6.698;2023-06-10T06:30:18;13.33;;;7.97;;
12271;SDS011;6198;51.446;6.698;2023-06-10T06:32:44;10.60;;;8.20;;
12271;SDS011;6198;51.446;6.698;2023-06-10T06:35:10;10.53;;;8.40;;
12271;SDS011;6198;51.446;6.698;2023-06-10T06:37:36;19.23;;;8.80;;
12271;SDS011;6198;51.446;6.698;2023-06-10T06:40:03;11.63;;;8.77;;
12271;SDS011;6198;51.446;6.698;2023-06-10T06:42:29;10.93;;;7.80;;
12271;SDS011;6198;51.446;6.698;2023-06-10T06:44:55;10.30;;;8.07;;
12271;SDS011;6198;51.446;6.698;2023-06-10T06:47:21;12.70;;;9.20;;
12271;SDS011;6198;51.446;6.698;2023-06-10T06:49:47;9.97;;;8.13;;
12271;SDS011;6198;51.446;6.698;2023-06-10T06:52:13;9.57;;;7.93;;
12271;SDS011;6198;51.446;6.698;2023-06-10T06:54:39;12.43;;;7.70;;
12271;SDS011;6198;51.446;6.698;2023-06-10T06:57:05;11.83;;;7.63;;
12271;SDS011;6198;51.446;6.698;2023-06-10T06:59:32;9.40;;;7.50;;
12271;SDS011;6198;51.446;6.698;2023-06-10T07:01:57;11.30;;;7.70;;
12271;SDS011;6198;51.446;6.698;2023-06-10T07:04:24;11.17;;;7.37;;
12271;SDS011;6198;51.446;6.698;2023-06-10T07:06:50;9.20;;;6.60;;
12271;SDS011;6198;51.446;6.698;2023-06-10T07:09:16;9.83;;;7.50;;
12271;SDS011;6198;51.446;6.698;2023-06-10T07:11:42;13.80;;;7.23;;
12271;SDS011;6198;51.446;6.698;2023-06-10T07:14:08;10.77;;;7.43;;
12271;SDS011;6198;51.446;6.698;2023-06-10T07:16:34;7.83;;;7.07;;
12271;SDS011;6198;51.446;6.698;2023-06-10T07:19:00;9.33;;;7.17;;
12271;SDS011;6198;51.446;6.698;2023-06-10T07:21:26;11.33;;;7.43;;
12271;SDS011;6198;51.446;6.698;2023-06-10T07:23:53;13.83;;;7.87;;
12271;SDS011;6198;51.446;6.698;2023-06-10T07:26:21;12.30;;;7.53;;
12271;SDS011;6198;51.446;6.698;2023-06-10T07:28:47;9.97;;;7.17;;
12271;SDS011;6198;51.446;6.698;2023-06-10T07:31:13;12.13;;;7.13;;
12271;SDS011;6198;51.446;6.698;2023-06-10T07:33:39;9.23;;;7.37;;
12271;SDS011;6198;51.446;6.698;2023-06-10T07:36:06;11.50;;;7.90;;
12271;SDS011;6198;51.446;6.698;2023-06-10T07:38:32;15.70;;;7.00;;
12271;SDS011;6198;51.446;6.698;2023-06-10T07:40:58;13.47;;;7.60;;
12271;SDS011;6198;51.446;6.698;2023-06-10T07:43:24;10.47;;;6.77;;
12271;SDS011;6198;51.446;6.698;2023-06-10T07:45:50;7.30;;;6.60;;
12271;SDS011;6198;51.446;6.698;2023-06-10T07:48:16;9.23;;;6.80;;
12271;SDS011;6198;51.446;6.698;2023-06-10T07:50:42;8.33;;;6.90;;
12271;SDS011;6198;51.446;6.698;2023-06-10T07:53:08;8.20;;;6.60;;
12271;SDS011;6198;51.446;6.698;2023-06-10T07:55:34;8.93;;;6.47;;
12271;SDS011;6198;51.446;6.698;2023-06-10T07:58:00;7.90;;;6.70;;
12271;SDS011;6198;51.446;6.698;2023-06-10T08:00:26;9.93;;;6.83;;
12271;SDS011;6198;51.446;6.698;2023-06-10T08:02:52;9.37;;;6.40;;
12271;SDS011;6198;51.446;6.698;2023-06-10T08:05:18;11.17;;;6.87;;
12271;SDS011;6198;51.446;6.698;2023-06-10T08:07:45;8.40;;;6.10;;
12271;SDS011;6198;51.446;6.698;2023-06-10T08:10:11;9.97;;;6.50;;
12271;SDS011;6198;51.446;6.698;2023-06-10T08:12:37;16.70;;;7.53;;
12271;SDS011;6198;51.446;6.698;2023-06-10T08:15:03;19.70;;;8.83;;
12271;SDS011;6198;51.446;6.698;2023-06-10T08:17:29;10.00;;;6.83;;
12271;SDS011;6198;51.446;6.698;2023-06-10T08:19:55;9.33;;;7.47;;
12271;SDS011;6198;51.446;6.698;2023-06-10T08:22:21;8.37;;;6.37;;
12271;SDS011;6198;51.446;6.698;2023-06-10T08:24:47;7.93;;;6.43;;
12271;SDS011;6198;51.446;6.698;2023-06-10T08:27:13;12.27;;;6.50;;
12271;SDS011;6198;51.446;6.698;2023-06-10T08:29:39;9.67;;;6.87;;
12271;SDS011;6198;51.446;6.698;2023-06-10T08:32:06;14.27;;;7.00;;
12271;SDS011;6198;51.446;6.698;2023-06-10T08:34:33;17.43;;;7.90;;
12271;SDS011;6198;51.446;6.698;2023-06-10T08:37:00;13.03;;;8.70;;
12271;SDS011;6198;51.446;6.698;2023-06-10T08:39:26;14.97;;;7.60;;
12271;SDS011;6198;51.446;6.698;2023-06-10T08:44:31;10.43;;;6.73;;
12271;SDS011;6198;51.446;6.698;2023-06-10T08:46:58;10.27;;;6.70;;
12271;SDS011;6198;51.446;6.698;2023-06-10T08:49:25;9.67;;;5.77;;
12271;SDS011;6198;51.446;6.698;2023-06-10T08:51:54;12.63;;;7.00;;
12271;SDS011;6198;51.446;6.698;2023-06-10T08:54:21;12.07;;;6.27;;
12271;SDS011;6198;51.446;6.698;2023-06-10T08:56:50;12.37;;;6.30;;
12271;SDS011;6198;51.446;6.698;2023-06-10T08:59:17;7.30;;;6.00;;
12271;SDS011;6198;51.446;6.698;2023-06-10T09:01:43;9.47;;;7.07;;
12271;SDS011;6198;51.446;6.698;2023-06-10T09:04:10;10.70;;;6.50;;
12271;SDS011;6198;51.446;6.698;2023-06-10T09:06:36;11.73;;;7.43;;
12271;SDS011;6198;51.446;6.698;2023-06-10T09:09:03;10.43;;;7.30;;
12271;SDS011;6198;51.446;6.698;2023-06-10T09:11:31;11.40;;;7.87;;
12271;SDS011;6198;51.446;6.698;2023-06-10T09:13:57;8.13;;;7.33;;
12271;SDS011;6198;51.446;6.698;2023-06-10T09:16:23;12.80;;;8.40;;
12271;SDS011;6198;51.446;6.698;2023-06-10T09:18:50;10.40;;;6.57;;
12271;SDS011;6198;51.446;6.698;2023-06-10T09:21:20;10.93;;;7.07;;
12271;SDS011;6198;51.446;6.698;2023-06-10T09:23:46;12.57;;;7.10;;
12271;SDS011;6198;51.446;6.698;2023-06-10T09:26:12;12.93;;;7.23;;
12271;SDS011;6198;51.446;6.698;2023-06-10T09:28:38;11.17;;;7.30;;
12271;SDS011;6198;51.446;6.698;2023-06-10T09:31:06;11.37;;;6.83;;
12271;SDS011;6198;51.446;6.698;2023-06-10T09:33:32;11.40;;;7.17;;
12271;SDS011;6198;51.446;6.698;2023-06-10T09:35:59;14.60;;;7.40;;
12271;SDS011;6198;51.446;6.698;2023-06-10T09:38:29;9.37;;;7.47;;
12271;SDS011;6198;51.446;6.698;2023-06-10T09:40:55;13.53;;;6.97;;
12271;SDS011;6198;51.446;6.698;2023-06-10T09:43:21;10.80;;;7.03;;
12271;SDS011;6198;51.446;6.698;2023-06-10T09:45:48;12.30;;;7.20;;
12271;SDS011;6198;51.446;6.698;2023-06-10T09:48:14;8.33;;;7.27;;
12271;SDS011;6198;51.446;6.698;2023-06-10T09:50:43;9.33;;;6.80;;
12271;SDS011;6198;51.446;6.698;2023-06-10T09:53:10;10.17;;;7.40;;
12271;SDS011;6198;51.446;6.698;2023-06-10T09:55:39;13.53;;;7.27;;
12271;SDS011;6198;51.446;6.698;2023-06-10T09:58:06;9.33;;;7.53;;
12271;SDS011;6198;51.446;6.698;2023-06-10T10:00:33;11.43;;;7.43;;
12271;SDS011;6198;51.446;6.698;2023-06-10T10:02:59;16.23;;;7.33;;
12271;SDS011;6198;51.446;6.698;2023-06-10T10:05:25;11.73;;;7.43;;
12271;SDS011;6198;51.446;6.698;2023-06-10T10:07:51;12.53;;;7.20;;
12271;SDS011;6198;51.446;6.698;2023-06-10T10:10:18;14.60;;;7.80;;
12271;SDS011;6198;51.446;6.698;2023-06-10T10:12:46;8.40;;;7.33;;
12271;SDS011;6198;51.446;6.698;2023-06-10T10:15:12;8.57;;;7.30;;
12271;SDS011;6198;51.446;6.698;2023-06-10T10:17:44;7.77;;;6.97;;
12271;SDS011;6198;51.446;6.698;2023-06-10T10:20:12;7.43;;;6.73;;
12271;SDS011;6198;51.446;6.698;2023-06-10T10:22:41;10.37;;;6.70;;
12271;SDS011;6198;51.446;6.698;2023-06-10T10:25:11;11.07;;;7.80;;
12271;SDS011;6198;51.446;6.698;2023-06-10T10:27:42;13.20;;;7.73;;
12271;SDS011;6198;51.446;6.698;2023-06-10T10:30:09;8.80;;;7.37;;
12271;SDS011;6198;51.446;6.698;2023-06-10T10:32:38;10.17;;;7.23;;
12271;SDS011;6198;51.446;6.698;2023-06-10T10:35:08;14.70;;;7.97;;
12271;SDS011;6198;51.446;6.698;2023-06-10T10:37:34;10.93;;;7.27;;
12271;SDS011;6198;51.446;6.698;2023-06-10T10:40:01;9.00;;;7.07;;
12271;SDS011;6198;51.446;6.698;2023-06-10T10:42:28;9.60;;;7.17;;
12271;SDS011;6198;51.446;6.698;2023-06-10T10:44:54;7.50;;;6.67;;
12271;SDS011;6198;51.446;6.698;2023-06-10T10:47:21;8.87;;;6.70;;
12271;SDS011;6198;51.446;6.698;2023-06-10T10:49:48;12.73;;;6.83;;
12271;SDS011;6198;51.446;6.698;2023-06-10T10:52:15;8.60;;;7.10;;
12271;SDS011;6198;51.446;6.698;2023-06-10T10:54:45;11.13;;;7.67;;
12271;SDS011;6198;51.446;6.698;2023-06-10T11:02:10;10.77;;;7.67;;
12271;SDS011;6198;51.446;6.698;2023-06-10T11:04:36;10.80;;;7.27;;
12271;SDS011;6198;51.446;6.698;2023-06-10T11:07:05;8.00;;;7.20;;
12271;SDS011;6198;51.446;6.698;2023-06-10T11:09:32;8.97;;;6.60;;
12271;SDS011;6198;51.446;6.698;2023-06-10T11:11:58;8.93;;;8.03;;
12271;SDS011;6198;51.446;6.698;2023-06-10T11:14:28;10.97;;;7.70;;
12271;SDS011;6198;51.446;6.698;2023-06-10T11:16:56;8.20;;;6.97;;
12271;SDS011;6198;51.446;6.698;2023-06-10T11:19:32;8.67;;;7.10;;
12271;SDS011;6198;51.446;6.698;2023-06-10T11:22:00;13.50;;;7.63;;
12271;SDS011;6198;51.446;6.698;2023-06-10T11:24:26;10.87;;;6.90;;
12271;SDS011;6198;51.446;6.698;2023-06-10T11:26:52;12.83;;;7.03;;
12271;SDS011;6198;51.446;6.698;2023-06-10T11:29:18;7.97;;;7.17;;
12271;SDS011;6198;51.446;6.698;2023-06-10T11:31:46;10.53;;;7.33;;
12271;SDS011;6198;51.446;6.698;2023-06-10T11:34:14;7.80;;;7.03;;
12271;SDS011;6198;51.446;6.698;2023-06-10T11:36:41;8.43;;;6.65;;
12271;SDS011;6198;51.446;6.698;2023-06-10T11:39:09;9.93;;;7.70;;
12271;SDS011;6198;51.446;6.698;2023-06-10T11:41:36;7.87;;;7.10;;
12271;SDS011;6198;51.446;6.698;2023-06-10T11:44:10;7.73;;;7.00;;
12271;SDS011;6198;51.446;6.698;2023-06-10T11:46:36;8.13;;;7.27;;
12271;SDS011;6198;51.446;6.698;2023-06-10T11:49:03;11.13;;;7.57;;
12271;SDS011;6198;51.446;6.698;2023-06-10T11:51:32;9.20;;;7.53;;
12271;SDS011;6198;51.446;6.698;2023-06-10T11:53:58;9.20;;;7.70;;
12271;SDS011;6198;51.446;6.698;2023-06-10T11:56:25;9.63;;;7.50;;
12271;SDS011;6198;51.446;6.698;2023-06-10T11:58:55;10.63;;;8.07;;
12271;SDS011;6198;51.446;6.698;2023-06-10T12:01:22;8.57;;;7.68;;
12271;SDS011;6198;51.446;6.698;2023-06-10T12:04:08;10.52;;;7.75;;
12271;SDS011;6198;51.446;6.698;2023-06-10T12:06:44;8.55;;;7.53;;
12271;SDS011;6198;51.446;6.698;2023-06-10T12:09:14;8.70;;;7.80;;
12271;SDS011;6198;51.446;6.698;2023-06-10T12:11:41;10.37;;;7.53;;
12271;SDS011;6198;51.446;6.698;2023-06-10T12:14:08;9.90;;;7.50;;
12271;SDS011;6198;51.446;6.698;2023-06-10T12:16:34;9.10;;;7.63;;
12271;SDS011;6198;51.446;6.698;2023-06-10T12:19:03;7.77;;;7.00;;
12271;SDS011;6198;51.446;6.698;2023-06-10T12:21:31;12.90;;;6.77;;
12271;SDS011;6198;51.446;6.698;2023-06-10T12:24:01;8.73;;;6.90;;
12271;SDS011;6198;51.446;6.698;2023-06-10T12:26:37;8.93;;;7.28;;
12271;SDS011;6198;51.446;6.698;2023-06-10T12:34:42;11.03;;;8.20;;
12271;SDS011;6198;51.446;6.698;2023-06-10T12:37:12;9.32;;;6.57;;
12271;SDS011;6198;51.446;6.698;2023-06-10T12:39:41;7.72;;;6.60;;
12271;SDS011;6198;51.446;6.698;2023-06-10T12:42:12;11.10;;;7.55;;
12271;SDS011;6198;51.446;6.698;2023-06-10T12:44:40;8.10;;;7.07;;
12271;SDS011;6198;51.446;6.698;2023-06-10T12:47:07;8.93;;;7.57;;
12271;SDS011;6198;51.446;6.698;2023-06-10T12:49:33;12.70;;;7.28;;
12271;SDS011;6198;51.446;6.698;2023-06-10T12:52:00;9.80;;;7.00;;
12271;SDS011;6198;51.446;6.698;2023-06-10T12:54:26;9.23;;;7.63;;
12271;SDS011;6198;51.446;6.698;2023-06-10T12:56:52;8.32;;;7.38;;
12271;SDS011;6198;51.446;6.698;2023-06-10T12:59:18;11.32;;;7.30;;
12271;SDS011;6198;51.446;6.698;2023-06-10T13:01:44;7.90;;;6.38;;
12271;SDS011;6198;51.446;6.698;2023-06-10T13:04:10;8.25;;;7.32;;
12271;SDS011;6198;51.446;6.698;2023-06-10T13:06:36;8.55;;;7.15;;
12271;SDS011;6198;51.446;6.698;2023-06-10T13:09:03;9.80;;;7.35;;
12271;SDS011;6198;51.446;6.698;2023-06-10T13:11:31;10.98;;;7.95;;
12271;SDS011;6198;51.446;6.698;2023-06-10T13:13:57;8.80;;;7.70;;
12271;SDS011;6198;51.446;6.698;2023-06-10T13:16:23;11.93;;;7.45;;
12271;SDS011;6198;51.446;6.698;2023-06-10T13:18:50;11.48;;;7.28;;
12271;SDS011;6198;51.446;6.698;2023-06-10T13:21:16;10.20;;;7.50;;
12271;SDS011;6198;51.446;6.698;2023-06-10T13:23:44;8.77;;;7.15;;
12271;SDS011;6198;51.446;6.698;2023-06-10T13:26:12;16.15;;;7.47;;
12271;SDS011;6198;51.446;6.698;2023-06-10T13:28:38;7.85;;;7.15;;
12271;SDS011;6198;51.446;6.698;2023-06-10T13:31:04;7.30;;;6.60;;
12271;SDS011;6198;51.446;6.698;2023-06-10T13:33:30;7.90;;;7.07;;
12271;SDS011;6198;51.446;6.698;2023-06-10T13:35:56;9.85;;;7.47;;
12271;SDS011;6198;51.446;6.698;2023-06-10T13:38:22;7.72;;;6.90;;
12271;SDS011;6198;51.446;6.698;2023-06-10T13:40:48;8.95;;;7.15;;
12271;SDS011;6198;51.446;6.698;2023-06-10T13:43:16;8.40;;;7.25;;
12271;SDS011;6198;51.446;6.698;2023-06-10T13:45:42;8.70;;;7.80;;
12271;SDS011;6198;51.446;6.698;2023-06-10T13:48:08;6.85;;;6.15;;
12271;SDS011;6198;51.446;6.698;2023-06-10T13:50:34;8.35;;;7.63;;
12271;SDS011;6198;51.446;6.698;2023-06-10T13:53:00;13.10;;;7.80;;
12271;SDS011;6198;51.446;6.698;2023-06-10T13:55:25;8.63;;;7.15;;
12271;SDS011;6198;51.446;6.698;2023-06-10T13:57:51;7.30;;;6.70;;
12271;SDS011;6198;51.446;6.698;2023-06-10T14:00:17;8.20;;;7.28;;
12271;SDS011;6198;51.446;6.698;2023-06-10T14:02:44;9.48;;;7.43;;
12271;SDS011;6198;51.446;6.698;2023-06-10T14:05:11;8.40;;;7.53;;
12271;SDS011;6198;51.446;6.698;2023-06-10T14:07:37;7.45;;;6.68;;
12271;SDS011;6198;51.446;6.698;2023-06-10T14:10:04;9.02;;;7.50;;
12271;SDS011;6198;51.446;6.698;2023-06-10T14:12:30;10.00;;;7.30;;
12271;SDS011;6198;51.446;6.698;2023-06-10T14:14:56;8.60;;;7.30;;
12271;SDS011;6198;51.446;6.698;2023-06-10T14:17:22;8.32;;;7.53;;
12271;SDS011;6198;51.446;6.698;2023-06-10T14:19:48;11.30;;;7.53;;
12271;SDS011;6198;51.446;6.698;2023-06-10T14:22:14;8.88;;;7.85;;
12271;SDS011;6198;51.446;6.698;2023-06-10T14:24:40;10.15;;;7.88;;
12271;SDS011;6198;51.446;6.698;2023-06-10T14:27:06;7.15;;;6.45;;
12271;SDS011;6198;51.446;6.698;2023-06-10T14:29:32;8.90;;;6.88;;
12271;SDS011;6198;51.446;6.698;2023-06-10T14:31:58;8.60;;;7.80;;
12271;SDS011;6198;51.446;6.698;2023-06-10T14:34:24;8.27;;;6.65;;
12271;SDS011;6198;51.446;6.698;2023-06-10T14:36:54;8.48;;;7.50;;
12271;SDS011;6198;51.446;6.698;2023-06-10T14:39:20;9.57;;;7.32;;
12271;SDS011;6198;51.446;6.698;2023-06-10T14:41:46;8.82;;;7.13;;
12271;SDS011;6198;51.446;6.698;2023-06-10T14:44:12;7.95;;;7.15;;
12271;SDS011;6198;51.446;6.698;2023-06-10T14:46:38;11.53;;;7.77;;
12271;SDS011;6198;51.446;6.698;2023-06-10T14:49:04;8.82;;;7.25;;
12271;SDS011;6198;51.446;6.698;2023-06-10T14:51:30;9.40;;;7.95;;
12271;SDS011;6198;51.446;6.698;2023-06-10T14:53:56;8.55;;;7.25;;
12271;SDS011;6198;51.446;6.698;2023-06-10T14:56:23;12.07;;;7.50;;
12271;SDS011;6198;51.446;6.698;2023-06-10T14:58:50;9.05;;;7.80;;
12271;SDS011;6198;51.446;6.698;2023-06-10T15:01:16;8.90;;;8.00;;